M I D A S
Marine Information and Data Acquisition System
Tripno 1100 of the Zeeleeuw from 2006-05-08 07:10:12 to 2006-05-08 14:33:40
Back to CruiseResearch ActivitiesStationsMapUnderway DataData graphs

EquipmentUnitsComment
TimeDGPSUTC
LatitudeDGPSDM.mWGS84
LongitudeDGPSDM.mWGS84
TemperatureSBE03/SBE38deg celciusITS90
ConductivitySBE21S/mITS90
SalinitySBE21 Practical Salinity Units
ChlorophylAChelsea fluorimeterg/lCalibrated in Aceton
Missing or incorrect values are displayed as -999
Sea surface data collected by the RV Zeeleeuw from 2006-05-08 07:11:03 to 2006-05-08 14:51:04
Time Latitude Longitude Temperature Conductivity Salinity ChlorophylA
2006-05-08 07:12:09 51°13.608 2°56.028 19.1845 4.307621 27.845402 5.893212
2006-05-08 07:13:09 51°13.631 2°55.926 19.2 4.30741 27.845918 5.926922
2006-05-08 07:14:09 51°13.68 2°55.824 19.2226 4.307199 27.846028 5.893212
2006-05-08 07:15:09 51°13.72 2°55.735 19.1759 4.306988 27.844916 5.893212
2006-05-08 07:16:08 51°13.729 2°55.719 19.1601 4.306777 27.844212 5.893212
2006-05-08 07:17:09 51°13.728 2°55.713 19.1726 4.306672 27.844674 5.926922
2006-05-08 07:18:08 51°13.751 2°55.709 19.2768 4.306356 27.844838 5.893212
2006-05-08 07:19:08 51°13.827 2°55.645 18.9197 4.30625 27.8453 5.893212
2006-05-08 07:20:08 51°13.942 2°55.554 18.9861 4.30604 27.846223 5.893212
2006-05-08 07:21:08 51°14.056 2°55.471 19.1644 4.305829 27.845926 5.893212
2006-05-08 07:22:08 51°14.187 2°55.367 19.0892 4.305513 27.845276 5.926922
2006-05-08 07:23:08 51°14.306 2°55.181 18.89 4.305407 27.844924 5.859503
2006-05-08 07:24:08 51°14.425 2°54.948 18.8896 4.305302 27.844571 5.893212
2006-05-08 07:25:08 51°14.599 2°54.804 18.821 4.30488 27.844384 5.893212
2006-05-08 07:26:08 51°14.774 2°54.612 13.5169 4.275048 27.69031 11.927195
2006-05-08 07:27:08 51°14.955 2°54.423 12.5025 3.703995 30.795006 8.758512
2006-05-08 07:28:08 51°15.14 2°54.245 12.3664 3.604029 30.454843 8.792221
2006-05-08 07:29:08 51°15.321 2°54.061 12.209 3.587494 30.494924 8.623674
2006-05-08 07:30:07 51°15.511 2°53.913 12.1201 3.600031 30.750838 8.320289
2006-05-08 07:31:08 51°15.708 2°53.756 12.0135 3.589393 30.707697 8.185452
2006-05-08 07:32:08 51°15.901 2°53.601 11.9025 3.588762 30.822477 8.893349
2006-05-08 07:33:08 51°16.093 2°53.447 11.8709 3.589817 30.902122 9.129315
2006-05-08 07:34:08 51°16.287 2°53.298 11.7408 3.586236 30.905703 8.657383
2006-05-08 07:35:08 51°16.478 2°53.148 11.5438 3.607938 31.264194 8.488836
2006-05-08 07:36:07 51°16.666 2°52.997 11.4899 3.603831 31.344555 8.387708
2006-05-08 07:37:08 51°16.86 2°52.844 11.4431 3.595405 31.310574 8.252871
2006-05-08 07:38:08 51°17.054 2°52.701 11.3923 3.599513 31.386562 8.151742
2006-05-08 07:39:08 51°17.254 2°52.578 11.3191 3.604465 31.484414 8.118033
2006-05-08 07:40:07 51°17.456 2°52.464 11.2714 3.615843 31.653935 8.050614
2006-05-08 07:41:08 51°17.672 2°52.406 11.2078 3.613315 31.675636 8.084324
2006-05-08 07:42:08 51°17.889 2°52.376 11.2291 3.600675 31.592642 8.185452
2006-05-08 07:43:08 51°18.107 2°52.349 11.2318 3.597199 31.556031 8.28658
2006-05-08 07:44:08 51°18.326 2°52.355 11.2634 3.589614 31.471938 8.455127
2006-05-08 07:45:07 51°18.541 2°52.355 11.2375 3.59309 31.489519 8.623674
2006-05-08 07:46:07 51°18.761 2°52.355 11.2373 3.587402 31.445647 8.82593
2006-05-08 07:47:08 51°18.985 2°52.356 11.2249 3.593406 31.518389 8.994477
2006-05-08 07:48:09 51°19.21 2°52.353 11.2098 3.594144 31.528974 9.163024
2006-05-08 07:49:07 51°19.425 2°52.347 11.2251 3.597936 31.56594 9.365281
2006-05-08 07:50:08 51°19.65 2°52.338 11.2221 3.596461 31.551564 9.601247
2006-05-08 07:51:08 51°19.873 2°52.337 11.2195 3.588561 31.48067 9.736084
2006-05-08 07:52:08 51°20.097 2°52.333 11.2361 3.592248 31.517967 9.904631
2006-05-08 07:53:08 51°20.321 2°52.33 11.2349 3.590562 31.491351 10.073178
2006-05-08 07:54:08 51°20.545 2°52.331 11.2555 3.586559 31.450314 10.208016
2006-05-08 07:55:08 51°20.769 2°52.335 11.2838 3.583083 31.389391 10.342853
2006-05-08 07:56:09 51°20.997 2°52.342 11.2972 3.577078 31.320848 10.410272
2006-05-08 07:57:08 51°21.216 2°52.342 11.3699 3.575708 31.279928 10.5114
2006-05-08 07:58:09 51°21.443 2°52.345 11.3546 3.572759 31.21637 10.781076
2006-05-08 07:59:08 51°21.662 2°52.346 11.3969 3.556642 31.058012 10.983332
2006-05-08 08:00:09 51°21.889 2°52.343 11.4137 3.578657 31.241428 11.219298
2006-05-08 08:01:08 51°22.11 2°52.344 11.4571 3.584661 31.278194 11.286717
2006-05-08 08:02:09 51°22.338 2°52.342 11.3955 3.594036 31.346919 11.455264
2006-05-08 08:03:07 51°22.555 2°52.343 11.3723 3.600673 31.460428 11.590101
2006-05-08 08:04:08 51°22.783 2°52.35 11.3627 3.6012 31.481077 11.724939
2006-05-08 08:05:09 51°23.013 2°52.357 11.5132 3.594774 31.38835 11.859777
2006-05-08 08:06:08 51°23.237 2°52.362 11.5382 3.592034 31.268605 11.960905
2006-05-08 08:07:09 51°23.47 2°52.37 11.6028 3.593297 31.259455 12.062033
2006-05-08 08:08:09 51°23.7 2°52.378 11.567 3.593402 31.223806 12.095742
2006-05-08 08:09:08 51°23.925 2°52.386 11.5533 3.592244 31.230603 12.196871
2006-05-08 08:10:07 51°24.145 2°52.389 11.1747 3.603621 31.398813 12.331708
2006-05-08 08:11:09 51°24.373 2°52.396 11.1108 3.651663 32.201428 12.432836
2006-05-08 08:12:07 51°24.587 2°52.404 11.2095 3.637651 32.024569 12.466546
2006-05-08 08:13:08 51°24.813 2°52.407 11.1978 3.632805 31.930905 12.601383
2006-05-08 08:14:07 51°25.031 2°52.411 11.2125 3.631962 31.935766 12.635093
2006-05-08 08:15:07 51°25.254 2°52.415 11.1246 3.632805 31.942624 12.702512
2006-05-08 08:16:08 51°25.477 2°52.48 11.1049 3.643235 32.104903 12.736221
2006-05-08 08:17:08 51°25.69 2°52.584 11.2085 3.651768 32.201066 12.736221
2006-05-08 08:18:07 51°25.902 2°52.687 11.1892 3.64492 32.039631 12.76993
2006-05-08 08:19:08 51°26.123 2°52.794 11.1735 3.651452 32.142312 12.837349
2006-05-08 08:20:07 51°26.337 2°52.897 11.0881 3.64787 32.114887 12.904768
2006-05-08 08:21:09 51°26.562 2°52.995 11.0995 3.650083 32.203362 12.904768
2006-05-08 08:22:07 51°26.771 2°53.088 10.9882 3.651348 32.23322 13.005896
2006-05-08 08:23:07 51°26.988 2°53.185 11.0129 3.654825 32.331129 13.073315
2006-05-08 08:24:09 51°27.215 2°53.286 11.042 3.652296 32.278912 13.073315
2006-05-08 08:25:07 51°27.425 2°53.378 11.1041 3.649662 32.220167 13.107024
2006-05-08 08:26:09 51°27.652 2°53.48 11.0816 3.651558 32.205275 13.107024
2006-05-08 08:27:09 51°27.871 2°53.581 11.1394 3.652611 32.213514 13.005896
2006-05-08 08:28:08 51°28.086 2°53.683 11.1214 3.648291 32.130816 13.005896
2006-05-08 08:29:08 51°28.305 2°53.784 11.133 3.65377 32.21372 13.039606
2006-05-08 08:30:09 51°28.527 2°53.883 11.1573 3.65082 32.164617 13.039606
2006-05-08 08:31:08 51°28.74 2°53.976 11.1658 3.648081 32.119032 13.039606
2006-05-08 08:32:09 51°28.96 2°54.08 11.0724 3.660828 32.255707 12.972187
2006-05-08 08:33:07 51°29.169 2°54.173 10.9583 3.677685 32.522223 12.938477
2006-05-08 08:34:09 51°29.391 2°54.275 10.9595 3.679583 32.608111 12.972187
2006-05-08 08:35:07 51°29.596 2°54.366 10.9615 3.678213 32.588938 12.972187
2006-05-08 08:36:07 51°29.812 2°54.463 10.9819 3.677581 32.572083 13.005896
2006-05-08 08:37:07 51°30.028 2°54.564 10.994 3.678634 32.564766 13.073315
2006-05-08 08:38:09 51°30.253 2°54.665 10.9771 3.682111 32.603254 13.073315
2006-05-08 08:39:09 51°30.47 2°54.77 10.993 3.683902 32.631533 13.107024
2006-05-08 08:40:09 51°30.686 2°54.877 10.9794 3.684007 32.615556 13.073315
2006-05-08 08:41:07 51°30.894 2°54.977 10.9559 3.686325 32.656122 13.107024
2006-05-08 08:42:07 51°31.112 2°55.082 10.9596 3.688432 32.694658 13.174443
2006-05-08 08:43:07 51°31.331 2°55.186 10.9329 3.685798 32.670817 13.174443
2006-05-08 08:44:09 51°31.56 2°55.292 10.8906 3.689275 32.732164 13.174443
2006-05-08 08:45:09 51°31.778 2°55.396 10.6915 3.694228 32.821072 13.174443
2006-05-08 08:46:08 51°31.988 2°55.497 10.5393 3.730262 33.385869 13.005896
2006-05-08 08:47:07 51°32.199 2°55.596 10.5436 3.737006 33.537059 13.039606
2006-05-08 08:48:07 51°32.414 2°55.701 10.5523 3.733951 33.51022 13.107024
2006-05-08 08:49:08 51°32.632 2°55.804 10.5705 3.729631 33.453059 13.140734
2006-05-08 08:50:07 51°32.812 2°55.895 10.5761 3.730158 33.450218 13.140734
2006-05-08 08:51:09 51°32.945 2°55.97 10.6001 3.729525 33.429189 13.174443
2006-05-08 08:52:08 51°33.011 2°56.06 10.6266 3.727313 33.393152 13.208153
2006-05-08 08:53:09 51°33.045 2°56.124 10.6338 3.726786 33.368086 13.208153
2006-05-08 08:54:09 51°33.071 2°56.157 10.6544 3.72668 33.357506 13.174443
2006-05-08 08:55:08 51°33.107 2°56.181 10.6508 3.726153 33.344931 13.174443
2006-05-08 08:56:07 51°33.153 2°56.172 10.6376 3.725837 33.335193 13.241862
2006-05-08 08:57:09 51°33.19 2°56.133 10.623 3.72668 33.357506 13.275571
2006-05-08 08:58:08 51°33.205 2°56.088 10.6059 3.730157 33.416382 13.275571
2006-05-08 08:59:08 51°33.205 2°56.057 10.6292 3.730052 33.416801 13.241862
2006-05-08 09:00:08 51°33.198 2°56.041 10.6434 3.727734 33.376071 13.241862
2006-05-08 09:01:07 51°33.187 2°56.026 10.6484 3.727628 33.366222 13.275571
2006-05-08 09:02:09 51°33.171 2°56.018 10.6473 3.728471 33.374621 13.241862
2006-05-08 09:03:09 51°33.157 2°56.019 10.639 3.728261 33.374721 13.241862
2006-05-08 09:04:09 51°33.139 2°56.025 10.6212 3.729525 33.393924 13.275571
2006-05-08 09:05:09 51°33.107 2°56.026 10.6221 3.730157 33.414178 13.275571
2006-05-08 09:06:09 51°33.074 2°56.014 10.6143 3.731106 33.425105 13.275571
2006-05-08 09:07:08 51°33.07 2°56.01 10.6088 3.732054 33.441916 13.309281
2006-05-08 09:08:09 51°33.071 2°56.013 10.6071 3.732791 33.452952 13.309281
2006-05-08 09:09:09 51°33.075 2°56.016 10.6075 3.732686 33.450429 13.34299
2006-05-08 09:10:08 51°33.081 2°56.02 10.6004 3.733529 33.461047 13.309281
2006-05-08 09:11:09 51°33.087 2°56.025 10.6071 3.733845 33.46641 13.410409
2006-05-08 09:12:09 51°33.096 2°56.028 10.6201 3.734056 33.469985 13.410409
2006-05-08 09:13:09 51°33.104 2°56.031 10.6452 3.736163 33.468191 13.477828
2006-05-08 09:14:08 51°33.113 2°56.037 10.6577 3.73827 33.473021 13.477828
2006-05-08 09:15:09 51°33.123 2°56.039 10.6624 3.735741 33.437528 13.511537
2006-05-08 09:16:09 51°33.137 2°56.037 10.6522 3.739745 33.475959 13.511537
2006-05-08 09:17:08 51°33.151 2°56.038 10.6243 3.737954 33.475754 13.545247
2006-05-08 09:18:09 51°33.164 2°56.038 10.6306 3.735847 33.467246 13.612665
2006-05-08 09:19:08 51°33.176 2°56.039 10.6411 3.736268 33.464828 13.612665
2006-05-08 09:20:09 51°33.187 2°56.041 10.6609 3.739534 33.486362 13.646375
2006-05-08 09:21:09 51°33.199 2°56.042 10.657 3.740587 33.488773 13.646375
2006-05-08 09:22:08 51°33.21 2°56.045 10.6659 3.740693 33.486146 13.680084
2006-05-08 09:23:08 51°33.22 2°56.05 10.6614 3.741852 33.489608 13.747503
2006-05-08 09:24:09 51°33.213 2°56.073 10.6448 3.741957 33.499484 13.781212
2006-05-08 09:25:09 51°33.14 2°56.198 10.6057 3.740693 33.509698 13.747503
2006-05-08 09:26:09 51°32.999 2°56.376 10.5899 3.737638 33.509423 13.814922
2006-05-08 09:27:08 51°32.843 2°56.566 10.5757 3.735426 33.502818 13.781212
2006-05-08 09:28:09 51°32.671 2°56.736 10.5915 3.734688 33.497666 13.814922
2006-05-08 09:29:08 51°32.499 2°56.893 10.5698 3.735004 33.497135 13.882341
2006-05-08 09:30:08 51°32.329 2°57.068 10.5547 3.735742 33.519257 13.848631
2006-05-08 09:31:08 51°32.188 2°57.305 10.7043 3.733529 33.499367 13.91605
2006-05-08 09:32:08 51°32.047 2°57.551 10.7113 3.70466 33.080789 14.118306
2006-05-08 09:33:09 51°31.904 2°57.799 10.7918 3.703185 33.077009 14.152016
2006-05-08 09:34:09 51°31.766 2°58.04 10.8532 3.697179 32.928512 14.219435
2006-05-08 09:35:09 51°31.625 2°58.277 10.8673 3.696651 32.875855 14.219435
2006-05-08 09:36:09 51°31.484 2°58.513 10.9363 3.697599 32.862284 14.219435
2006-05-08 09:37:07 51°31.35 2°58.742 10.9587 3.6937 32.760866 14.253144
2006-05-08 09:38:09 51°31.204 2°58.985 10.9841 3.694016 32.763272 14.320563
2006-05-08 09:39:08 51°31.069 2°59.218 11.0515 3.684007 32.607764 14.421691
2006-05-08 09:40:09 51°30.928 2°59.46 11.0649 3.671364 32.452305 14.4554
2006-05-08 09:41:08 51°30.792 2°59.694 11.044 3.664622 32.377597 14.522819
2006-05-08 09:42:07 51°30.652 2°59.928 11.0161 3.665359 32.405928 14.522819
2006-05-08 09:43:09 51°30.505 3°0.174 11.0018 3.667994 32.462124 14.556529
2006-05-08 09:44:07 51°30.369 3°0.407 10.9941 3.665149 32.436945 14.556529
2006-05-08 09:45:08 51°30.223 3°0.652 10.9824 3.661673 32.406952 14.623947
2006-05-08 09:46:08 51°30.075 3°0.883 10.9627 3.660093 32.408301 14.657657
2006-05-08 09:47:08 51°29.926 3°1.112 10.945 3.655352 32.37711 14.725076
2006-05-08 09:48:07 51°29.78 3°1.335 10.9145 3.654088 32.382975 14.758785
2006-05-08 09:49:08 51°29.634 3°1.565 10.909 3.65293 32.395533 14.792494
2006-05-08 09:50:08 51°29.493 3°1.794 10.9578 3.637654 32.232994 14.994751
2006-05-08 09:51:09 51°29.346 3°2.023 10.9021 3.628594 32.121372 15.163298
2006-05-08 09:52:07 51°29.209 3°2.246 10.8785 3.630596 32.186597 15.163298
2006-05-08 09:53:08 51°29.061 3°2.477 10.8331 3.627226 32.173708 15.197007
2006-05-08 09:54:07 51°28.916 3°2.703 10.8018 3.62849 32.218499 15.298136
2006-05-08 09:55:09 51°28.762 3°2.941 10.796 3.632494 32.281987 15.298136
2006-05-08 09:56:07 51°28.617 3°3.159 10.7736 3.632704 32.293243 15.331845
2006-05-08 09:57:08 51°28.446 3°3.352 10.7119 3.632916 32.330666 15.500392
2006-05-08 09:58:08 51°28.292 3°3.523 10.6616 3.631441 32.362118 15.534101
2006-05-08 09:59:09 51°28.24 3°3.624 10.6322 3.633338 32.428544 15.60152
2006-05-08 10:00:08 51°28.252 3°3.677 10.6266 3.631231 32.419026 15.567811
2006-05-08 10:01:08 51°28.282 3°3.735 10.627 3.637236 32.485779 15.63523
2006-05-08 10:02:09 51°28.323 3°3.771 10.6177 3.636499 32.479169 15.668939
2006-05-08 10:03:09 51°28.361 3°3.775 10.6116 3.632285 32.440887 15.803777
2006-05-08 10:04:09 51°28.386 3°3.76 10.611 3.637131 32.498301 15.837486
2006-05-08 10:05:09 51°28.392 3°3.743 10.6164 3.633444 32.463097 15.938614
2006-05-08 10:06:09 51°28.383 3°3.736 10.6097 3.628071 32.406878 15.904905
2006-05-08 10:07:08 51°28.368 3°3.734 10.6191 3.634919 32.479892 15.904905
2006-05-08 10:08:09 51°28.348 3°3.74 10.6221 3.635972 32.482503 15.938614
2006-05-08 10:09:09 51°28.328 3°3.762 10.6198 3.635551 32.474748 15.904905
2006-05-08 10:10:09 51°28.307 3°3.791 10.6159 3.637447 32.49644 15.904905
2006-05-08 10:11:09 51°28.29 3°3.835 10.6202 3.62923 32.413399 15.871195
2006-05-08 10:12:09 51°28.293 3°3.922 10.6191 3.635762 32.482552 15.904905
2006-05-08 10:13:08 51°28.348 3°3.986 10.625 3.637447 32.497155 16.006033
2006-05-08 10:14:09 51°28.401 3°3.952 10.6054 3.634919 32.47418 16.039742
2006-05-08 10:15:09 51°28.4 3°3.854 10.6078 3.633339 32.463478 16.107161
2006-05-08 10:16:09 51°28.354 3°3.736 10.6257 3.63829 32.51053 16.039742
2006-05-08 10:17:09 51°28.306 3°3.609 10.6348 3.637552 32.49463 16.140871
2006-05-08 10:18:09 51°28.262 3°3.546 10.6283 3.63692 32.475504 16.140871
2006-05-08 10:19:09 51°28.259 3°3.536 10.631 3.636077 32.475697 16.208289
2006-05-08 10:20:09 51°28.263 3°3.534 10.6436 3.636604 32.471652 16.140871
2006-05-08 10:21:08 51°28.272 3°3.537 10.6495 3.636709 32.468419 16.208289
2006-05-08 10:22:09 51°28.284 3°3.543 10.6465 3.636499 32.463475 16.241999
2006-05-08 10:23:08 51°28.295 3°3.549 10.6575 3.635972 32.452545 16.309418
2006-05-08 10:24:09 51°28.308 3°3.557 10.6593 3.63534 32.444847 16.309418
2006-05-08 10:25:09 51°28.321 3°3.566 10.6653 3.635234 32.437391 16.309418
2006-05-08 10:26:09 51°28.336 3°3.576 10.6673 3.634918 32.432832 16.376836
2006-05-08 10:27:08 51°28.351 3°3.587 10.6608 3.634813 32.428939 16.444255
2006-05-08 10:28:09 51°28.369 3°3.599 10.6617 3.634392 32.428318 16.477965
2006-05-08 10:29:09 51°28.386 3°3.608 10.656 3.634181 32.429075 16.477965
2006-05-08 10:30:09 51°28.402 3°3.616 10.6576 3.63376 32.427741 16.444255
2006-05-08 10:31:07 51°28.416 3°3.609 10.6614 3.634286 32.430832 16.477965
2006-05-08 10:32:09 51°28.467 3°3.57 10.6796 3.634497 32.423669 16.545383
2006-05-08 10:33:09 51°28.537 3°3.667 10.6783 3.634602 32.410488 16.680221
2006-05-08 10:34:09 51°28.495 3°3.87 10.6719 3.633865 32.406731 16.680221
2006-05-08 10:35:09 51°28.378 3°4.142 10.664 3.634286 32.420867 16.71393
2006-05-08 10:36:09 51°28.242 3°4.411 10.6233 3.637341 32.463998 16.74764
2006-05-08 10:37:09 51°28.113 3°4.683 10.86 3.636393 32.43038 16.71393
2006-05-08 10:38:08 51°27.996 3°4.959 10.9478 3.629859 32.191256 16.848768
2006-05-08 10:39:09 51°27.867 3°5.238 11.0247 3.629332 32.122339 16.949896
2006-05-08 10:40:09 51°27.741 3°5.506 11.1206 3.628698 32.026264 16.916187
2006-05-08 10:41:08 51°27.62 3°5.775 11.1272 3.628908 31.972873 16.916187
2006-05-08 10:42:09 51°27.491 3°6.052 11.089 3.629119 31.978397 16.983606
2006-05-08 10:43:09 51°27.364 3°6.328 11.0384 3.628382 32.007895 17.017315
2006-05-08 10:44:08 51°27.243 3°6.605 11.0311 3.62754 32.044081 17.017315
2006-05-08 10:45:08 51°27.119 3°6.882 11.1288 3.623852 31.979418 17.185862
2006-05-08 10:46:09 51°26.99 3°7.159 11.1526 3.620691 31.875165 17.185862
2006-05-08 10:47:09 51°26.865 3°7.431 11.2608 3.6189 31.845244 17.455537
2006-05-08 10:48:09 51°26.742 3°7.708 11.292 3.615106 31.708785 17.624084
2006-05-08 10:49:08 51°26.628 3°7.99 11.3103 3.615527 31.695825 17.758922
2006-05-08 10:50:09 51°26.512 3°8.269 11.3222 3.613736 31.663383 17.961178
2006-05-08 10:51:09 51°26.447 3°8.379 11.3211 3.612999 31.647351 18.163435
2006-05-08 10:52:09 51°26.411 3°8.438 11.3362 3.61163 31.637422 18.096016
2006-05-08 10:53:09 51°26.391 3°8.498 11.3362 3.611419 31.621768 17.86005
2006-05-08 10:54:08 51°26.385 3°8.546 11.3448 3.610997 31.614269 17.893759
2006-05-08 10:55:08 51°26.389 3°8.606 11.3517 3.610997 31.608153 17.927469
2006-05-08 10:56:08 51°26.412 3°8.666 11.3672 3.611524 31.603089 17.893759
2006-05-08 10:57:07 51°26.445 3°8.707 11.3652 3.612366 31.604494 18.062306
2006-05-08 10:58:07 51°26.484 3°8.73 11.376 3.612998 31.61064 18.096016
2006-05-08 10:59:08 51°26.522 3°8.734 11.3749 3.613736 31.613056 18.163435
2006-05-08 11:00:08 51°26.552 3°8.723 11.3759 3.614262 31.616819 18.230853
2006-05-08 11:01:08 51°26.572 3°8.704 11.3651 3.614473 31.620226 18.298272
2006-05-08 11:02:07 51°26.579 3°8.685 11.3643 3.614052 31.620883 18.298272
2006-05-08 11:03:08 51°26.564 3°8.653 11.3649 3.613314 31.616429 18.331982
2006-05-08 11:04:08 51°26.524 3°8.564 11.3628 3.612577 31.605864 18.331982
2006-05-08 11:05:07 51°26.486 3°8.464 11.3535 3.611313 31.598324 18.365691
2006-05-08 11:06:09 51°26.477 3°8.427 11.3332 3.610154 31.599277 18.43311
2006-05-08 11:07:07 51°26.488 3°8.416 11.3295 3.609944 31.606738 18.466819
2006-05-08 11:08:09 51°26.504 3°8.407 11.3184 3.609417 31.611128 18.534238
2006-05-08 11:09:08 51°26.52 3°8.4 11.3228 3.609523 31.614873 18.500529
2006-05-08 11:10:07 51°26.537 3°8.395 11.3191 3.609839 31.617949 18.635366
2006-05-08 11:11:08 51°26.555 3°8.392 11.3173 3.609101 31.613491 18.736494
2006-05-08 11:12:08 51°26.572 3°8.391 11.3124 3.609101 31.617572 18.871332
2006-05-08 11:13:08 51°26.59 3°8.39 11.3105 3.609312 31.620304 18.905042
2006-05-08 11:14:08 51°26.608 3°8.39 11.313 3.609101 31.621654 18.905042
2006-05-08 11:15:08 51°26.625 3°8.39 11.3154 3.609523 31.623035 18.97246
2006-05-08 11:16:08 51°26.643 3°8.391 11.3059 3.609733 31.625767 19.039879
2006-05-08 11:17:08 51°26.662 3°8.389 11.3 3.609523 31.630521 19.039879
2006-05-08 11:18:08 51°26.65 3°8.364 11.2932 3.609312 31.631192 19.00617
2006-05-08 11:19:08 51°26.594 3°8.457 11.3016 3.609312 31.638683 19.00617
2006-05-08 11:20:08 51°26.544 3°8.727 11.3302 3.609101 31.608052 18.837623
2006-05-08 11:21:08 51°26.448 3°9.006 11.3427 3.609312 31.603985 19.073589
2006-05-08 11:22:08 51°26.346 3°9.288 11.3932 3.608258 31.572012 18.871332
2006-05-08 11:23:08 51°26.237 3°9.57 11.395 3.610786 31.570823 18.938751
2006-05-08 11:24:09 51°26.126 3°9.855 11.4156 3.615737 31.60808 19.073589
2006-05-08 11:25:09 51°26.015 3°10.134 11.4292 3.619845 31.629673 19.107298
2006-05-08 11:26:08 51°25.909 3°10.408 11.4321 3.623216 31.654266 18.97246
2006-05-08 11:27:08 51°25.798 3°10.686 11.4221 3.625007 31.675731 18.97246
2006-05-08 11:28:07 51°25.711 3°10.979 11.4257 3.626798 31.693124 18.837623
2006-05-08 11:29:09 51°25.639 3°11.309 11.4247 3.627851 31.702677 18.803913
2006-05-08 11:30:07 51°25.569 3°11.617 11.4225 3.629115 31.716316 18.803913
2006-05-08 11:31:07 51°25.509 3°11.945 11.4481 3.629747 31.720416 18.736494
2006-05-08 11:32:08 51°25.518 3°12.298 11.4579 3.627745 31.677204 18.702785
2006-05-08 11:33:08 51°25.517 3°12.641 11.3253 3.632065 31.740207 18.803913
2006-05-08 11:34:09 51°25.52 3°12.987 11.3099 3.629643 31.801911 19.208426
2006-05-08 11:35:08 51°25.542 3°13.319 11.3171 3.627326 31.793698 19.343264
2006-05-08 11:36:08 51°25.561 3°13.659 11.339 3.627115 31.786858 19.376973
2006-05-08 11:37:07 51°25.579 3°13.993 11.4439 3.627957 31.749995 19.747777
2006-05-08 11:38:08 51°25.599 3°14.336 11.5273 3.6308 31.6926 20.051161
2006-05-08 11:39:08 51°25.618 3°14.673 11.5988 3.630167 31.62148 20.253418
2006-05-08 11:40:09 51°25.636 3°15.015 11.6029 3.628271 31.559308 20.995024
2006-05-08 11:41:09 51°25.657 3°15.352 11.6456 3.627533 31.540745 20.69164
2006-05-08 11:42:08 51°25.678 3°15.684 11.621 3.630377 31.551418 19.848905
2006-05-08 11:43:08 51°25.693 3°16.02 11.6415 3.624583 31.504855 19.882614
2006-05-08 11:44:08 51°25.683 3°16.353 11.6589 3.618262 31.420371 19.410683
2006-05-08 11:45:08 51°25.685 3°16.687 11.6493 3.619421 31.424193 19.073589
2006-05-08 11:46:08 51°25.709 3°17.019 11.6541 3.616682 31.403785 19.646648
2006-05-08 11:47:08 51°25.739 3°17.352 11.6695 3.615207 31.382873 19.747777
2006-05-08 11:48:08 51°25.772 3°17.685 11.6718 3.61468 31.371783 19.950033
2006-05-08 11:49:09 51°25.798 3°17.936 11.6777 3.612995 31.347523 19.848905
2006-05-08 11:50:07 51°25.811 3°18.045 11.6854 3.611415 31.329623 19.848905
2006-05-08 11:51:08 51°25.823 3°18.111 11.6938 3.610993 31.320897 19.848905
2006-05-08 11:52:08 51°25.852 3°18.154 11.7072 3.611098 31.314586 19.848905
2006-05-08 11:53:09 51°25.892 3°18.173 11.7242 3.612257 31.313101 19.882614
2006-05-08 11:54:09 51°25.934 3°18.166 11.7253 3.612889 31.308543 19.916324
2006-05-08 11:55:08 51°25.967 3°18.136 11.721 3.612046 31.302423 19.983742
2006-05-08 11:56:09 51°25.991 3°18.095 11.7269 3.611836 31.301059 19.983742
2006-05-08 11:57:09 51°26.004 3°18.05 11.7263 3.611519 31.297351 19.950033
2006-05-08 11:58:07 51°26.009 3°18.003 11.7263 3.611519 31.296021 20.11858
2006-05-08 11:59:08 51°26.003 3°17.958 11.725 3.610571 31.284898 20.051161
2006-05-08 12:00:08 51°25.987 3°17.931 11.7273 3.61173 31.296055 20.051161
2006-05-08 12:01:09 51°25.955 3°17.929 11.7312 3.612151 31.298117 20.084871
2006-05-08 12:02:08 51°25.921 3°17.922 11.7224 3.612573 31.302839 20.185999
2006-05-08 12:03:09 51°25.926 3°17.908 11.7079 3.612152 31.310755 20.388255
2006-05-08 12:04:08 51°25.937 3°17.893 11.7075 3.61152 31.30866 20.523093
2006-05-08 12:05:08 51°25.952 3°17.877 11.7092 3.611309 31.309293 20.792768
2006-05-08 12:06:08 51°25.969 3°17.862 11.7088 3.611098 31.307263 20.893896
2006-05-08 12:07:08 51°25.987 3°17.848 11.7066 3.611204 31.308278 20.860187
2006-05-08 12:08:09 51°26.005 3°17.833 11.7214 3.61152 31.307995 20.826477
2006-05-08 12:09:09 51°26.023 3°17.816 11.7213 3.612678 31.30984 20.556802
2006-05-08 12:10:07 51°26.04 3°17.8 11.7276 3.612889 31.310538 20.556802
2006-05-08 12:11:07 51°26.058 3°17.784 11.7466 3.6131 31.310571 20.455674
2006-05-08 12:12:09 51°26.076 3°17.766 11.7726 3.615627 31.308312 20.354546
2006-05-08 12:13:09 51°26.093 3°17.749 11.7831 3.617418 31.311588 20.287127
2006-05-08 12:14:07 51°26.11 3°17.732 11.7889 3.617945 31.308684 20.219708
2006-05-08 12:15:08 51°26.11 3°17.676 11.7686 3.617945 31.312004 20.185999
2006-05-08 12:16:09 51°25.991 3°17.571 11.7436 3.615943 31.312018 20.489383
2006-05-08 12:17:09 51°25.803 3°17.485 11.7177 3.61468 31.321795 20.65793
2006-05-08 12:18:09 51°25.614 3°17.387 11.6201 3.617946 31.370568 20.017452
2006-05-08 12:19:09 51°25.424 3°17.294 11.562 3.629324 31.572186 20.017452
2006-05-08 12:20:09 51°25.236 3°17.204 11.5543 3.628692 31.597753 19.916324
2006-05-08 12:21:09 51°25.047 3°17.111 11.5639 3.625321 31.569174 19.882614
2006-05-08 12:22:09 51°24.855 3°17.009 11.6262 3.621529 31.512958 20.017452
2006-05-08 12:23:09 51°24.66 3°16.913 11.6703 3.613943 31.392064 20.11858
2006-05-08 12:24:09 51°24.474 3°16.778 11.711 3.608044 31.295799 20.287127
2006-05-08 12:25:09 51°24.333 3°16.532 11.7321 3.600037 31.189464 20.489383
2006-05-08 12:26:09 51°24.193 3°16.275 11.7246 3.59635 31.144053 20.624221
2006-05-08 12:27:09 51°24.054 3°16.02 11.7166 3.599405 31.189345 20.556802
2006-05-08 12:28:09 51°23.916 3°15.763 11.72 3.60088 31.199565 20.590512
2006-05-08 12:29:09 51°23.778 3°15.509 11.7457 3.599405 31.176756 20.354546
2006-05-08 12:30:07 51°23.645 3°15.264 11.7592 3.597509 31.143295 20.388255
2006-05-08 12:31:09 51°23.502 3°15.003 11.7742 3.593927 31.097629 20.455674
2006-05-08 12:32:09 51°23.379 3°14.731 11.7765 3.589187 31.040211 20.455674
2006-05-08 12:33:09 51°23.262 3°14.454 11.7926 3.585184 30.999787 20.590512
2006-05-08 12:34:07 51°23.186 3°14.173 11.8022 3.582339 30.95934 20.759059
2006-05-08 12:35:09 51°23.142 3°13.925 11.8151 3.580022 30.932506 20.826477
2006-05-08 12:36:09 51°23.103 3°13.749 11.8235 3.577283 30.893783 20.826477
2006-05-08 12:37:08 51°23.07 3°13.625 11.8409 3.575597 30.870424 20.893896
2006-05-08 12:38:09 51°22.964 3°13.519 11.8534 3.572964 30.828851 21.197281
2006-05-08 12:39:09 51°22.821 3°13.382 11.859 3.570962 30.799243 21.534375
2006-05-08 12:40:08 51°22.678 3°13.246 11.8649 3.568539 30.773434 21.837759
2006-05-08 12:41:09 51°22.603 3°13.159 11.865 3.565695 30.735146 22.141144
2006-05-08 12:42:10 51°22.605 3°13.137 11.8548 3.565379 30.737971 22.174853
2006-05-08 12:43:09 51°22.581 3°13.123 11.8488 3.564958 30.743692 22.174853
2006-05-08 12:44:09 51°22.569 3°13.158 11.8467 3.566117 30.761949 22.174853
2006-05-08 12:45:09 51°22.591 3°13.2 11.8544 3.566222 30.756448 22.174853
2006-05-08 12:46:07 51°22.627 3°13.207 11.8596 3.566222 30.755797 22.275982
2006-05-08 12:47:08 51°22.662 3°13.177 11.8507 3.566749 30.757587 22.208563
2006-05-08 12:48:08 51°22.684 3°13.128 11.8492 3.568013 30.780764 22.208563
2006-05-08 12:49:09 51°22.694 3°13.078 11.8599 3.566749 30.764747 22.309691
2006-05-08 12:50:09 51°22.697 3°13.033 11.8719 3.56559 30.741939 22.410819
2006-05-08 12:51:08 51°22.694 3°12.993 11.8785 3.564958 30.728738 22.478238
2006-05-08 12:52:07 51°22.688 3°12.958 11.8832 3.56401 30.717715 22.613076
2006-05-08 12:53:07 51°22.663 3°12.934 11.8832 3.563799 30.711802 22.613076
2006-05-08 12:54:07 51°22.639 3°12.984 11.885 3.563483 30.706181 22.646785
2006-05-08 12:55:09 51°22.63 3°13.041 11.8538 3.564536 30.718209 22.714204
2006-05-08 12:56:08 51°22.637 3°13.04 11.8404 3.567065 30.765821 22.579366
2006-05-08 12:57:08 51°22.645 3°13.033 11.8326 3.567802 30.7807 22.444529
2006-05-08 12:58:07 51°22.654 3°13.021 11.8347 3.568118 30.788941 22.410819
2006-05-08 12:59:09 51°22.664 3°13.004 11.8333 3.568645 30.793988 22.37711
2006-05-08 13:00:07 51°22.674 3°12.984 11.8311 3.568856 30.792747 22.309691
2006-05-08 13:01:09 51°22.685 3°12.962 11.8376 3.56854 30.792979 22.3434
2006-05-08 13:02:09 51°22.695 3°12.941 11.8396 3.56875 30.791086 22.309691
2006-05-08 13:03:09 51°22.706 3°12.921 11.8447 3.568961 30.789194 22.37711
2006-05-08 13:04:08 51°22.716 3°12.9 11.8448 3.569066 30.789552 22.37711
2006-05-08 13:05:09 51°22.725 3°12.878 11.8524 3.568961 30.786588 22.410819
2006-05-08 13:06:07 51°22.734 3°12.857 11.8553 3.56854 30.779946 22.478238
2006-05-08 13:07:08 51°22.743 3°12.834 11.8553 3.567591 30.764356 22.579366
2006-05-08 13:08:09 51°22.752 3°12.815 11.8617 3.567275 30.760028 22.613076
2006-05-08 13:09:07 51°22.773 3°12.831 11.8724 3.567381 30.757133 22.646785
2006-05-08 13:10:09 51°22.857 3°12.817 11.8833 3.566959 30.747896 22.815332
2006-05-08 13:11:08 51°22.884 3°12.642 11.891 3.563588 30.708488 23.017589
2006-05-08 13:12:09 51°22.831 3°12.382 11.8998 3.565168 30.710622 23.085007
2006-05-08 13:13:09 51°22.762 3°12.05 11.9116 3.563694 30.69068 23.320973
2006-05-08 13:14:09 51°22.691 3°11.713 11.905 3.561271 30.662978 23.52323
2006-05-08 13:15:08 51°22.603 3°11.393 11.9006 3.560955 30.666434 23.624358
2006-05-08 13:16:07 51°22.51 3°11.074 11.914 3.560217 30.660031 23.691777
2006-05-08 13:17:07 51°22.41 3°10.752 11.9111 3.556004 30.604227 23.894033
2006-05-08 13:18:07 51°22.326 3°10.424 11.9225 3.553897 30.593141 23.927742
2006-05-08 13:19:09 51°22.277 3°10.059 11.9171 3.552844 30.579844 24.264836
2006-05-08 13:20:07 51°22.234 3°9.715 11.9601 3.551053 30.544025 24.06258
2006-05-08 13:21:09 51°22.178 3°9.351 12 3.549894 30.503992 24.028871
2006-05-08 13:22:09 51°22.132 3°8.994 11.9529 3.556846 30.556152 24.298546
2006-05-08 13:23:07 51°22.088 3°8.651 11.9479 3.561481 30.633288 24.433383
2006-05-08 13:24:09 51°22.036 3°8.286 11.9512 3.561586 30.634294 24.500802
2006-05-08 13:25:07 51°21.987 3°7.946 11.9335 3.563061 30.649672 24.534512
2006-05-08 13:26:07 51°21.956 3°7.588 11.9699 3.563272 30.651037 24.669349
2006-05-08 13:27:07 51°21.933 3°7.228 11.9936 3.562955 30.622177 24.871606
2006-05-08 13:28:07 51°21.888 3°6.875 11.9976 3.562639 30.599813 25.073862
2006-05-08 13:29:09 51°21.799 3°6.533 12.0041 3.563376 30.604266 25.107571
2006-05-08 13:30:08 51°21.718 3°6.204 11.9812 3.563587 30.606275 25.2087
2006-05-08 13:31:07 51°21.64 3°5.873 12.013 3.562323 30.597443 25.444665
2006-05-08 13:32:09 51°21.55 3°5.532 12.0334 3.564219 30.605213 25.512084
2006-05-08 13:33:09 51°21.473 3°5.196 12.0381 3.565483 30.597294 25.579503
2006-05-08 13:34:07 51°21.395 3°4.875 12.0535 3.56622 30.599814 25.579503
2006-05-08 13:35:07 51°21.317 3°4.543 12.0564 3.5678 30.60843 25.512084
2006-05-08 13:36:07 51°21.239 3°4.211 12.0627 3.570117 30.61956 25.478375
2006-05-08 13:37:09 51°21.166 3°3.864 12.0517 3.571803 30.637544 25.478375
2006-05-08 13:38:09 51°21.082 3°3.539 12.0164 3.573067 30.660544 25.377247
2006-05-08 13:39:07 51°21.007 3°3.221 11.988 3.574436 30.696192 25.2087
2006-05-08 13:40:08 51°20.926 3°2.884 11.7953 3.579283 30.797525 25.107571
2006-05-08 13:41:09 51°20.843 3°2.546 11.6969 3.578548 30.947874 25.242409
2006-05-08 13:42:08 51°20.758 3°2.224 11.6247 3.579918 31.042722 24.939024
2006-05-08 13:43:09 51°20.677 3°1.888 11.5933 3.580867 31.096863 24.736768
2006-05-08 13:44:09 51°20.595 3°1.558 11.5536 3.582026 31.129278 24.60193
2006-05-08 13:45:08 51°20.517 3°1.231 11.5683 3.581499 31.148784 24.568221
2006-05-08 13:46:08 51°20.438 3°0.902 11.5753 3.582658 31.150001 24.500802
2006-05-08 13:47:08 51°20.36 3°0.573 11.6542 3.585713 31.164872 24.399674
2006-05-08 13:48:07 51°20.28 3°0.252 11.6286 3.586976 31.117995 24.264836
2006-05-08 13:49:08 51°20.2 2°59.916 11.6037 3.589504 31.173555 24.500802
2006-05-08 13:50:08 51°20.118 2°59.588 11.5861 3.589821 31.18857 24.534512
2006-05-08 13:51:08 51°20.036 2°59.257 11.5953 3.591296 31.216783 24.60193
2006-05-08 13:52:07 51°19.958 2°58.931 11.6158 3.59572 31.240849 24.467093
2006-05-08 13:53:07 51°19.874 2°58.607 11.6182 3.602461 31.30193 24.264836
2006-05-08 13:54:08 51°19.794 2°58.274 11.65 3.607412 31.339044 24.197418
2006-05-08 13:55:08 51°19.715 2°57.945 11.6518 3.610994 31.351573 24.096289
2006-05-08 13:56:09 51°19.638 2°57.608 11.6152 3.616577 31.411463 24.028871
2006-05-08 13:57:09 51°19.555 2°57.278 11.6325 3.621739 31.487447 23.927742
2006-05-08 13:58:09 51°19.47 2°56.947 11.5805 3.615418 31.417009 23.894033
2006-05-08 13:59:09 51°19.385 2°56.616 11.5989 3.612785 31.409653 23.658067
2006-05-08 14:00:09 51°19.299 2°56.285 11.5797 3.613101 31.428122 23.455811
2006-05-08 14:01:09 51°19.221 2°55.951 11.5732 3.616683 31.481554 23.186136
2006-05-08 14:02:09 51°19.142 2°55.619 11.6222 3.619316 31.486862 22.983879
2006-05-08 14:03:09 51°19.066 2°55.284 11.6492 3.623108 31.487253 22.95017
2006-05-08 14:04:09 51°18.987 2°54.95 11.641 3.625636 31.498921 22.91646
2006-05-08 14:05:08 51°18.906 2°54.624 11.6458 3.628586 31.530089 22.849042
2006-05-08 14:06:09 51°18.828 2°54.283 11.6124 3.633327 31.585969 22.882751
2006-05-08 14:07:09 51°18.75 2°53.948 11.5789 3.637752 31.65301 22.815332
2006-05-08 14:08:09 51°18.674 2°53.613 11.5697 3.64323 31.729689 22.781623
2006-05-08 14:09:09 51°18.595 2°53.28 11.5351 3.647971 31.78034 22.815332
2006-05-08 14:10:08 51°18.51 2°52.957 11.5091 3.656715 31.8991 22.781623
2006-05-08 14:11:09 51°18.4 2°52.643 11.5208 3.66862 32.018702 22.781623
2006-05-08 14:12:09 51°18.258 2°52.373 11.5276 3.676416 32.095064 22.815332
2006-05-08 14:13:09 51°18.077 2°52.188 11.5377 3.679997 32.12847 22.781623
2006-05-08 14:14:08 51°17.869 2°52.158 11.5457 3.682526 32.141338 22.815332
2006-05-08 14:15:08 51°17.653 2°52.151 11.5677 3.683263 32.132701 22.849042
2006-05-08 14:16:08 51°17.447 2°52.226 11.5617 3.678101 32.082617 22.91646
2006-05-08 14:17:08 51°17.245 2°52.331 11.5337 3.671358 32.026113 22.983879
2006-05-08 14:18:08 51°17.043 2°52.436 11.5329 3.66883 32.006375 23.118717
2006-05-08 14:19:09 51°16.837 2°52.545 11.5728 3.673571 32.051 23.017589
2006-05-08 14:20:08 51°16.642 2°52.657 11.8118 3.684 32.10625 22.815332
2006-05-08 14:21:08 51°16.444 2°52.767 11.9293 3.667878 31.736196 23.186136
2006-05-08 14:22:08 51°16.248 2°52.878 11.9918 3.661662 31.602152 23.52323
2006-05-08 14:23:08 51°16.055 2°53.004 12.0359 3.655867 31.499347 23.894033
2006-05-08 14:24:09 51°15.869 2°53.164 11.9857 3.655234 31.470077 24.096289
2006-05-08 14:25:08 51°15.687 2°53.319 11.9734 3.65671 31.510076 24.197418
2006-05-08 14:26:08 51°15.506 2°53.485 11.9929 3.657553 31.542088 24.365965
2006-05-08 14:27:08 51°15.334 2°53.67 12.0945 3.652917 31.4426 24.669349
2006-05-08 14:28:09 51°15.17 2°53.875 12.165 3.65418 31.372798 24.905315
2006-05-08 14:29:08 51°15.01 2°54.075 12.2237 3.662185 31.401759 25.2087
2006-05-08 14:30:08 51°14.846 2°54.278 12.2582 3.665661 31.390169 25.444665
2006-05-08 14:31:07 51°14.684 2°54.474 12.2386 3.661974 31.344578 25.916597
2006-05-08 14:32:08 51°14.536 2°54.684 12.1967 3.648595 31.23822 26.691913
2006-05-08 14:33:09 51°14.415 2°54.921 12.1787 3.643539 31.218204 27.163845
2006-05-08 14:34:09 51°14.317 2°55.157 12.3427 3.594554 30.722637 28.073999
2006-05-08 14:35:08 51°14.226 2°55.317 12.4179 3.50049 29.727058 27.602067
2006-05-08 14:36:08 51°14.127 2°55.417 12.5567 3.473526 29.427216 27.871742
2006-05-08 14:37:09 51°14.052 2°55.468 12.8649 3.382848 28.469285 27.130136
2006-05-08 14:38:10 51°13.989 2°55.514 13.0871 3.340617 27.821722 26.86046
2006-05-08 14:39:10 51°13.925 2°55.555 12.8878 3.326505 27.615918 28.714477
2006-05-08 14:40:09 51°13.848 2°55.605 12.8966 3.410963 28.530937 30.905589
2006-05-08 14:41:10 51°13.772 2°55.682 13.9106 3.359463 27.81402 29.557212
2006-05-08 14:42:10 51°13.711 2°55.784 14.7381 3.036673 24.282129 29.826888
2006-05-08 14:43:09 51°13.667 2°55.883 14.8854 3.127609 24.680125 30.163982
2006-05-08 14:44:09 51°13.632 2°55.967 14.692 3.222881 25.467899 29.69205
2006-05-08 14:45:10 51°13.613 2°56.04 15.0284 3.329225 26.44985 29.69205
2006-05-08 14:46:09 51°13.606 2°56.087 15.085 3.316905 26.32169 49.041247
2006-05-08 14:47:08 51°13.603 2°56.097 15.1429 3.317747 26.334185 47.827708
2006-05-08 14:48:09 51°13.603 2°56.099 15.1778 3.317958 26.352881 46.883845
2006-05-08 14:49:11 51°13.603 2°56.099 15.218 3.317747 26.340308 46.074819
2006-05-08 14:50:14 51°13.603 2°56.098 15.2639 3.317431 26.342638 45.46805